Holsted Private Airfield

DK-0030 · Region Süddänemark, Dänemark

METAR-Geschichte DK-0030 · Holsted Private Airfield

Unten siehst du die METARs der letzten paar Tage. Wähle ein Jahr, um ältere METARs ab dem Jahr 2007 zu durchsuchen.

14. April 2024

Uhrzeit Code Wetter Temp. Sichtweite Wolkendecke Wind METAR/SPECI
09:20
M
8 °C 10 km+ 2.200 ft 270° 270° 17 kt METAR EKBI 140720Z AUTO 27017KT 9999 BKN022/// 08/04 Q1013
08:50
M
7 °C 10 km+ 2.000 ft 260° 260° 16 - 26 kt METAR EKBI 140650Z AUTO 26016G26KT 9999 BKN020/// 07/04 Q1013
08:20
M
7 °C 10 km+ 2.000 ft 260° 260° 15 kt METAR EKBI 140620Z AUTO 26015KT 9999 BKN020/// 07/04 Q1013
07:50
M
7 °C 10 km+ 2.000 ft 260° 260° 15 kt METAR EKBI 140550Z AUTO 26015KT 9999 BKN020/// 07/04 Q1013
07:20
M
7 °C 10 km+ 1.700 ft 260° 260° 14 kt METAR EKBI 140520Z AUTO 26014KT 9999 BKN017/// 07/04 Q1012
06:50
M
7 °C 10 km+ 1.900 ft 260° 260° 15 kt METAR EKBI 140450Z AUTO 26015KT 9999 BKN019/// 07/04 Q1012
06:20
M
7 °C 10 km+ 1.900 ft 250° 250° 12 kt METAR EKBI 140420Z AUTO 25012KT 9999 BKN019/// 07/04 Q1012
05:50
M
7 °C 10 km+ 1.700 ft 260° 260° 13 kt METAR EKBI 140350Z AUTO 26013KT 9999 BKN017/// BKN039/// 07/05 Q1012
05:20
M
7 °C 10 km+ 1.700 ft 260° 260° 13 kt METAR EKBI 140320Z AUTO 26013KT 9999 BKN017/// 07/04 Q1012
04:50
V
6 °C 10 km+ - 260° 260° 13 kt METAR EKBI 140250Z AUTO 26013KT 9999 NCD 06/04 Q1012
04:20
V
7 °C 10 km+ - 260° 260° 16 kt METAR EKBI 140220Z AUTO 26016KT 9999 SCT018/// 07/04 Q1011
03:50
M
8 °C 10 km+ 2.000 ft 260° 260° 19 kt METAR EKBI 140150Z AUTO 26019KT 9999 BKN020/// 08/05 Q1011
03:20
M
8 °C 10 km+ 2.200 ft 270° 270° 19 kt METAR EKBI 140120Z AUTO 27019KT 9999 BKN022/// BKN097/// 08/05 Q1011
02:50
V
8 °C 10 km+ 7.800 ft 260° 260° 18 kt METAR EKBI 140050Z AUTO 26018KT 9999 FEW019/// BKN078/// 08/05 Q1010
02:20
V
9 °C 10 km+ 7.300 ft 260° 260° 16 - 27 kt METAR EKBI 140020Z AUTO 26016G27KT 9999 SCT019/// BKN073/// 09/06 Q1010
01:50
V
9 °C 10 km+ 5.400 ft 260° 260° 13 kt METAR EKBI 132350Z AUTO 26013KT 9999 FEW011/// BKN054/// BKN075/// 09/07 Q1010
01:20
I
10 °C 10 km+ 900 ft 250° 250° 14 kt METAR EKBI 132320Z AUTO 25014KT 9999 BKN009/// BKN054/// 10/08 Q1010
00:50
I
10 °C 10 km+ 700 ft 250° 250° 16 - 27 kt METAR EKBI 132250Z AUTO 25016G27KT 9999 -DZRA OVC007/// 10/09 Q1010
00:20
I
10 °C 9 km 600 ft 230° 230° 12 kt METAR EKBI 132220Z AUTO 23012KT 9000 -DZRA OVC006/// 10/09 Q1010

13. April 2024

Uhrzeit Code Wetter Temp. Sichtweite Wolkendecke Wind METAR/SPECI
23:50
I
10 °C 8 km 500 ft 240° 240° 14 kt METAR EKBI 132150Z AUTO 24014KT 8000 OVC005/// 10/09 Q1010
23:20
I
10 °C 10 km+ 600 ft 240° 240° 12 kt METAR EKBI 132120Z AUTO 24012KT 9999 OVC006/// 10/09 Q1011
22:50
I
10 °C 10 km+ 600 ft 230° 230° 11 kt METAR EKBI 132050Z AUTO 23011KT 9999 -RA OVC006/// 10/09 Q1011
22:20
I
10 °C 8 km 900 ft 230° 230° 12 kt METAR EKBI 132020Z AUTO 23012KT 8000 RA OVC009/// 10/09 Q1011
21:50
I
10 °C 10 km+ 900 ft 230° 230° 11 kt METAR EKBI 131950Z AUTO 23011KT 200V260 9999 BKN009/// BKN092/// 10/09 Q1012
21:20
I
10 °C 10 km+ 700 ft 240° 240° 12 kt METAR EKBI 131920Z AUTO 24012KT 9999 OVC007/// 10/09 Q1012
20:50
M
10 °C 10 km+ 1.000 ft 210° 210° 8 kt METAR EKBI 131850Z AUTO 21008KT 9999 BKN010/// BKN089/// 10/09 Q1012
20:20
I
10 °C 10 km+ 800 ft 210° 210° 8 kt METAR EKBI 131820Z AUTO 21008KT 9999 BKN008/// BKN089/// 10/09 Q1012
19:50
V
11 °C 10 km+ 7.400 ft 210° 210° 7 kt METAR EKBI 131750Z AUTO 21007KT 9999 RA SCT008/// BKN074/// 11/09 Q1013
19:20
I
11 °C 10 km+ 800 ft 230° 230° 11 kt METAR EKBI 131720Z AUTO 23011KT 9999 RA BKN008/// BKN036/// BKN057/// OVC075/// 11/10 Q1014
18:50
I
11 °C 10 km+ 800 ft 220° 220° 10 kt METAR EKBI 131650Z AUTO 22010KT 9999 BKN008/// OVC072/// 11/09 Q1015
18:20
V
11 °C 10 km+ 7.200 ft 200° 200° 8 kt METAR EKBI 131620Z AUTO 20008KT 9999 RA FEW043/// OVC072/// 11/09 Q1015
17:50
V
12 °C 10 km+ 4.600 ft 200° 200° 12 kt METAR EKBI 131550Z AUTO 20012KT 9999 -RA FEW037/// BKN046/// BKN068/// 12/08 Q1015
17:20
M
13 °C 10 km+ 2.900 ft 200° 200° 13 kt METAR EKBI 131520Z AUTO 20013KT 9999 OVC029/// 13/08 Q1016
16:50
V
13 °C 10 km+ 9.000 ft 210° 210° 11 kt METAR EKBI 131450Z AUTO 21011KT 9999 SCT017/// SCT037/// BKN090/// 13/09 Q1016
16:20
M
13 °C 10 km+ 2.000 ft 200° 200° 12 kt METAR EKBI 131420Z AUTO 20012KT 9999 BKN020/// 13/09 Q1017
15:50
M
14 °C 10 km+ 2.200 ft 220° 220° 12 kt METAR EKBI 131350Z AUTO 22012KT 190V250 9999 BKN022/// 14/09 Q1017
15:20
M
15 °C 10 km+ 2.600 ft 220° 220° 13 kt METAR EKBI 131320Z AUTO 22013KT 9999 BKN026/// 15/09 Q1017
14:50
M
15 °C 10 km+ 2.800 ft 240° 240° 11 kt METAR EKBI 131250Z AUTO 24011KT 210V280 9999 BKN028/// 15/09 Q1018
14:20
M
16 °C 10 km+ 2.800 ft 260° 260° 14 kt METAR EKBI 131220Z AUTO 26014KT 9999 BKN028/// 16/09 Q1018
13:50
V
16 °C 10 km+ - 240° 240° 12 kt METAR EKBI 131150Z AUTO 24012KT 210V270 9999 FEW028/// 16/09 Q1018
13:20
M
15 °C 10 km+ 2.700 ft 250° 250° 11 kt METAR EKBI 131120Z AUTO 25011KT 210V280 9999 BKN027/// 15/09 Q1019
12:50
V
15 °C 10 km+ - 260° 260° 9 kt METAR EKBI 131050Z AUTO 26009KT 9999 FEW019/// 15/10 Q1019
12:20
V
13 °C 10 km+ - 250° 250° 9 kt METAR EKBI 131020Z AUTO 25009KT 9999 SCT025/// 13/10 Q1019
11:50
M
13 °C 10 km+ 1.500 ft 240° 240° 10 kt METAR EKBI 130950Z AUTO 24010KT 9999 OVC015/// 13/09 Q1019
11:20
M
13 °C 10 km+ 1.400 ft 260° 260° 10 kt METAR EKBI 130920Z AUTO 26010KT 9999 OVC014/// 13/10 Q1019
10:50
M
12 °C 10 km+ 1.400 ft 240° 240° 11 kt METAR EKBI 130850Z AUTO 24011KT 210V270 9999 BKN014/// 12/09 Q1019
10:20
V
12 °C 10 km+ - 250° 250° 11 kt METAR EKBI 130820Z AUTO 25011KT 9999 SCT013/// 12/09 Q1019
09:50
V
12 °C 10 km+ - 240° 240° 10 kt METAR EKBI 130750Z AUTO 24010KT 9999 FEW053/// 12/09 Q1019
09:20
V
11 °C 10 km+ 10.000 ft 250° 250° 10 kt METAR EKBI 130720Z AUTO 25010KT 9999 BKN100/// 11/09 Q1019
08:50
V
11 °C 10 km+ - 240° 240° 10 kt METAR EKBI 130650Z AUTO 24010KT 9999 FEW038/// 11/09 Q1019
08:20
V
10 °C 10 km+ - 230° 230° 9 kt METAR EKBI 130620Z AUTO 23009KT 9999 SCT039/// 10/08 Q1019
07:50
V
9 °C 10 km+ - 220° 220° 7 kt METAR EKBI 130550Z AUTO 22007KT 9999 NCD 09/08 Q1019
07:20
V
9 °C 10 km+ - 200° 200° 6 kt METAR EKBI 130520Z AUTO 20006KT 180V240 9999 NCD 09/08 Q1019
06:50
V
9 °C 10 km+ - 210° 210° 6 kt METAR EKBI 130450Z AUTO 21006KT 9999 FEW030/// SCT130/// 09/07 Q1019
06:20
M
9 °C 10 km+ 2.800 ft 210° 210° 7 kt METAR EKBI 130420Z AUTO 21007KT 9999 OVC028/// 09/08 Q1019
05:50
M
9 °C 10 km+ 2.200 ft 200° 200° 7 kt METAR EKBI 130350Z AUTO 20007KT 9999 OVC022/// 09/08 Q1019
05:20
M
9 °C 10 km+ 2.000 ft 200° 200° 7 kt METAR EKBI 130320Z AUTO 20007KT 9999 OVC020/// 09/08 Q1019
04:50
M
9 °C 10 km+ 2.000 ft 210° 210° 8 kt METAR EKBI 130250Z AUTO 21008KT 9999 OVC020/// 09/08 Q1020
04:20
M
9 °C 10 km+ 2.000 ft 210° 210° 8 kt METAR EKBI 130220Z AUTO 21008KT 9999 FEW006/// BKN020/// OVC059/// 09/08 Q1020
03:50
I
9 °C 10 km+ 600 ft 210° 210° 8 kt METAR EKBI 130150Z AUTO 21008KT 9999 BKN006/// OVC034/// 09/08 Q1020
03:20
I
9 °C 10 km+ 600 ft 220° 220° 8 kt METAR EKBI 130120Z AUTO 22008KT 9999 OVC006/// 09/08 Q1020
02:50
I
9 °C 10 km+ 500 ft 220° 220° 9 kt METAR EKBI 130050Z AUTO 22009KT 190V250 9999 OVC005/// 09/08 Q1021
02:20
L
9 °C 10 km+ 400 ft 210° 210° 9 kt METAR EKBI 130020Z AUTO 21009KT 9999 OVC004/// 09/08 Q1021
01:50
I
9 °C 9 km 500 ft 210° 210° 7 kt METAR EKBI 122350Z AUTO 21007KT 170V240 9000 OVC005/// 09/08 Q1021
01:20
I
9 °C 10 km+ 500 ft 220° 220° 8 kt METAR EKBI 122320Z AUTO 22008KT 9999 OVC005/// 09/08 Q1022
00:50
I
9 °C 10 km+ 500 ft 210° 210° 8 kt METAR EKBI 122250Z AUTO 21008KT 9999 OVC005/// 09/08 Q1022
00:20
I
9 °C 10 km+ 500 ft 220° 220° 7 kt METAR EKBI 122220Z AUTO 22007KT 9999 OVC005/// 09/08 Q1022

12. April 2024

Uhrzeit Code Wetter Temp. Sichtweite Wolkendecke Wind METAR/SPECI
23:50
I
9 °C 10 km+ 500 ft 220° 220° 7 kt METAR EKBI 122150Z AUTO 22007KT 9999 OVC005/// 09/08 Q1022
23:20
I
9 °C 10 km+ 500 ft 220° 220° 7 kt METAR EKBI 122120Z AUTO 22007KT 9999 OVC005/// 09/08 Q1022
22:50
I
9 °C 10 km+ 500 ft 220° 220° 8 kt METAR EKBI 122050Z AUTO 22008KT 9999 OVC005/// 09/08 Q1022
22:20
I
9 °C 10 km+ 500 ft 230° 230° 8 kt METAR EKBI 122020Z AUTO 23008KT 9999 OVC005/// 09/08 Q1022
21:50
I
9 °C 10 km+ 500 ft 230° 230° 9 kt METAR EKBI 121950Z AUTO 23009KT 9999 OVC005/// 09/08 Q1022
21:20
I
9 °C 10 km+ 600 ft 230° 230° 10 kt METAR EKBI 121920Z AUTO 23010KT 9999 OVC006/// 09/09 Q1022
20:50
I
10 °C 10 km+ 600 ft 230° 230° 9 kt METAR EKBI 121850Z AUTO 23009KT 9999 OVC006/// 10/09 Q1022
20:20
I
10 °C 10 km+ 600 ft 240° 240° 11 kt METAR EKBI 121820Z AUTO 24011KT 9999 OVC006/// 10/09 Q1022
19:50
I
10 °C 10 km+ 600 ft 240° 240° 10 kt METAR EKBI 121750Z AUTO 24010KT 9999 OVC006/// 10/09 Q1022
19:20
I
10 °C 10 km+ 500 ft 240° 240° 10 kt METAR EKBI 121720Z AUTO 24010KT 220V280 9999 OVC005/// 10/09 Q1022
18:50
I
11 °C 10 km+ 600 ft 240° 240° 10 kt METAR EKBI 121650Z AUTO 24010KT 9999 OVC006/// 11/10 Q1022
18:20
I
11 °C 8 km 800 ft 240° 240° 13 kt METAR EKBI 121620Z AUTO 24013KT 8000 -DZ OVC008/// 11/10 Q1022
17:50
I
11 °C 10 km+ 800 ft 240° 240° 12 kt METAR EKBI 121550Z AUTO 24012KT 9999 OVC008/// 11/10 Q1022
17:20
I
12 °C 10 km+ 800 ft 240° 240° 13 kt METAR EKBI 121520Z AUTO 24013KT 9999 OVC008/// 12/10 Q1022
16:50
I
12 °C 10 km+ 800 ft 240° 240° 13 kt METAR EKBI 121450Z AUTO 24013KT 9999 OVC008/// 12/11 Q1022
16:20
I
12 °C 10 km+ 600 ft 250° 250° 13 kt METAR EKBI 121420Z AUTO 25013KT 9999 OVC006/// 12/11 Q1022
15:50
I
11 °C 7 km 600 ft 250° 250° 12 kt METAR EKBI 121350Z AUTO 25012KT 7000 -DZ OVC006/// 11/11 Q1022
15:20
I
11 °C 10 km+ 500 ft 250° 250° 13 kt METAR EKBI 121320Z AUTO 25013KT 9999 OVC005/// 11/11 Q1022
14:50
I
11 °C 8 km 500 ft 240° 240° 15 kt METAR EKBI 121250Z AUTO 24015KT 8000 OVC005/// 11/11 Q1022
14:20
L
11 °C 7 km 400 ft 250° 250° 16 kt METAR EKBI 121220Z AUTO 25016KT 7000 OVC004/// 11/10 Q1022
13:50
L
11 °C 7 km 300 ft 240° 240° 15 kt METAR EKBI 121150Z AUTO 24015KT 7000 OVC003/// 11/11 Q1022
13:20
L
11 °C 4,8 km 300 ft 240° 240° 14 - 24 kt METAR EKBI 121120Z 24014G24KT 4800 BR OVC003 11/11 Q1022
12:50
L
11 °C 2 km 200 ft 240° 240° 15 kt METAR EKBI 121050Z 24015KT 2000 BR -DZ OVC002 11/11 Q1022
12:20
L
11 °C 2,4 km 200 ft 230° 230° 14 kt METAR EKBI 121020Z AUTO 23014KT 2400 -DZ BR OVC002/// 11/11 Q1022
11:50
L
11 °C 3,3 km 200 ft 230° 230° 14 kt METAR EKBI 120950Z AUTO 23014KT 3300 BR OVC002/// 11/10 Q1022 REDZRA
11:20
L
11 °C 7 km 300 ft 220° 220° 13 kt METAR EKBI 120920Z AUTO 22013KT 200V260 7000 -RA OVC003/// 11/10 Q1022 REDZRA
10:50
I
11 °C 5 km 500 ft 220° 220° 14 kt METAR EKBI 120850Z AUTO 22014KT 5000 -RA OVC005/// 11/10 Q1022
10:20
I
11 °C 4,7 km 500 ft 210° 210° 13 kt METAR EKBI 120820Z AUTO 21013KT 4700 RA OVC005/// 11/10 Q1023
09:50
I
11 °C 3 km 500 ft 210° 210° 13 kt METAR EKBI 120750Z AUTO 21013KT 3000 RA OVC005/// 11/10 Q1023
09:20
I
11 °C 3,6 km 500 ft 210° 210° 12 kt METAR EKBI 120720Z AUTO 21012KT 3600 DZRA BR OVC005/// 11/11 Q1023
08:50
I
11 °C 6 km 700 ft 190° 190° 10 kt METAR EKBI 120650Z AUTO 19010KT 6000 OVC007/// 11/11 Q1023
08:20
I
11 °C 7 km 700 ft 190° 190° 12 kt METAR EKBI 120620Z AUTO 19012KT 7000 DZ OVC007/// 11/11 Q1023
07:50
I
11 °C 10 km+ 600 ft 200° 200° 10 kt METAR EKBI 120550Z AUTO 20010KT 170V230 9999 BKN006/// 11/10 Q1024
Eine Änderung melden